CheckWX is a tool to help pilots better visualize weather data.  It is not intended as a substitute for an official pre-flight weather briefing.

15:58:27 UTC

KBAZ METAR
New Braunfels Regional Airport
New Braunfels, Texas, USA
Current

33 mins ago

KBAZ 211525Z 19012KT 10SM CLR 30/22 A2997 RMK AO2 T03000222
Observed
Jul-21 @ 15:25 UTC
Wind
  • 190° at 12 KTS
Visibility
10 SM
Flight Rules
VFR
Cloud Levels
  • Clear skies
Temperature
30°C / 86°F
Dewpoint
22°C / 72°F
Heat Index
33°C / 92°F
Humidity
62%
Altimeter
29.97" Hg
Pressure
1014.92 hPa
Previous

1 hour ago

KBAZ 211451Z 19012KT 10SM BKN017 29/22 A2997 RMK AO2 SLP139 T02890222 51004
Observed
Jul-21 @ 14:51 UTC
Wind
  • 190° at 12 KTS
Visibility
10 SM
Flight Rules
MVFR
Cloud Levels
  • Broken at 1,700' AGL
Temperature
29°C / 84°F
Dewpoint
22°C / 72°F
Heat Index
32°C / 89°F
Humidity
66%
Altimeter
29.97" Hg
Pressure
1014.92 hPa
Previous

2 hours ago

KBAZ 211418Z 19009KT 10SM BKN015 BKN020 28/23 A2997 RMK AO2 T02780228
Observed
Jul-21 @ 14:18 UTC
Wind
  • 190° at 9 KTS
Visibility
10 SM
Flight Rules
MVFR
Cloud Levels
  • Broken at 1,500' AGL
  • Broken at 2,000' AGL
Temperature
28°C / 82°F
Dewpoint
23°C / 73°F
Heat Index
31°C / 87°F
Humidity
74%
Altimeter
29.97" Hg
Pressure
1014.92 hPa